sensor_id;sensor_type;location;lat;lon;timestamp;P1;durP1;ratioP1;P2;durP2;ratioP2
46723;SDS011;32463;48.298;11.620;2023-05-10T00:00:22;6.53;;;1.90;;
46723;SDS011;32463;48.298;11.620;2023-05-10T00:02:48;3.65;;;2.05;;
46723;SDS011;32463;48.298;11.620;2023-05-10T00:05:15;3.03;;;2.20;;
46723;SDS011;32463;48.298;11.620;2023-05-10T00:07:42;3.20;;;2.10;;
46723;SDS011;32463;48.298;11.620;2023-05-10T00:10:09;3.08;;;2.30;;
46723;SDS011;32463;48.298;11.620;2023-05-10T00:12:38;3.63;;;2.40;;
46723;SDS011;32463;48.298;11.620;2023-05-10T00:15:05;5.40;;;2.55;;
46723;SDS011;32463;48.298;11.620;2023-05-10T00:17:32;3.20;;;2.08;;
46723;SDS011;32463;48.298;11.620;2023-05-10T00:19:58;5.43;;;2.20;;
46723;SDS011;32463;48.298;11.620;2023-05-10T00:22:25;4.47;;;2.35;;
46723;SDS011;32463;48.298;11.620;2023-05-10T00:24:52;3.85;;;2.33;;
46723;SDS011;32463;48.298;11.620;2023-05-10T00:27:18;3.03;;;2.13;;
46723;SDS011;32463;48.298;11.620;2023-05-10T00:29:45;3.60;;;2.33;;
46723;SDS011;32463;48.298;11.620;2023-05-10T00:32:11;2.90;;;2.20;;
46723;SDS011;32463;48.298;11.620;2023-05-10T00:34:39;4.68;;;2.40;;
46723;SDS011;32463;48.298;11.620;2023-05-10T00:37:06;3.95;;;2.40;;
46723;SDS011;32463;48.298;11.620;2023-05-10T00:39:32;3.60;;;2.10;;
46723;SDS011;32463;48.298;11.620;2023-05-10T00:41:59;2.10;;;1.85;;
46723;SDS011;32463;48.298;11.620;2023-05-10T00:44:26;4.10;;;2.05;;
46723;SDS011;32463;48.298;11.620;2023-05-10T00:46:53;2.92;;;1.90;;
46723;SDS011;32463;48.298;11.620;2023-05-10T00:49:20;3.30;;;2.08;;
46723;SDS011;32463;48.298;11.620;2023-05-10T00:51:47;3.00;;;1.98;;
46723;SDS011;32463;48.298;11.620;2023-05-10T00:54:14;2.95;;;2.20;;
46723;SDS011;32463;48.298;11.620;2023-05-10T00:56:43;4.03;;;1.88;;
46723;SDS011;32463;48.298;11.620;2023-05-10T00:59:13;3.90;;;1.90;;
46723;SDS011;32463;48.298;11.620;2023-05-10T01:01:43;2.25;;;1.67;;
46723;SDS011;32463;48.298;11.620;2023-05-10T01:04:14;3.20;;;2.20;;
46723;SDS011;32463;48.298;11.620;2023-05-10T01:06:53;5.97;;;2.15;;
46723;SDS011;32463;48.298;11.620;2023-05-10T01:09:22;3.28;;;1.75;;
46723;SDS011;32463;48.298;11.620;2023-05-10T01:11:51;2.45;;;1.83;;
46723;SDS011;32463;48.298;11.620;2023-05-10T01:14:18;3.53;;;1.60;;
46723;SDS011;32463;48.298;11.620;2023-05-10T01:16:48;1.83;;;1.42;;
46723;SDS011;32463;48.298;11.620;2023-05-10T01:19:19;2.65;;;1.70;;
46723;SDS011;32463;48.298;11.620;2023-05-10T01:21:53;1.55;;;1.40;;
46723;SDS011;32463;48.298;11.620;2023-05-10T01:24:39;3.42;;;1.50;;
46723;SDS011;32463;48.298;11.620;2023-05-10T01:27:23;2.25;;;1.40;;
46723;SDS011;32463;48.298;11.620;2023-05-10T01:36:15;3.00;;;1.30;;
46723;SDS011;32463;48.298;11.620;2023-05-10T01:41:41;2.33;;;1.40;;
46723;SDS011;32463;48.298;11.620;2023-05-10T01:47:20;1.95;;;1.20;;
46723;SDS011;32463;48.298;11.620;2023-05-10T01:50:04;2.05;;;1.30;;
46723;SDS011;32463;48.298;11.620;2023-05-10T01:52:41;3.65;;;1.30;;
46723;SDS011;32463;48.298;11.620;2023-05-10T01:55:09;3.42;;;1.20;;
46723;SDS011;32463;48.298;11.620;2023-05-10T01:57:42;2.25;;;1.30;;
46723;SDS011;32463;48.298;11.620;2023-05-10T02:00:11;2.40;;;1.30;;
46723;SDS011;32463;48.298;11.620;2023-05-10T02:02:40;2.40;;;1.23;;
46723;SDS011;32463;48.298;11.620;2023-05-10T02:05:10;1.95;;;1.20;;
46723;SDS011;32463;48.298;11.620;2023-05-10T02:07:38;1.50;;;1.00;;
46723;SDS011;32463;48.298;11.620;2023-05-10T02:10:06;1.55;;;1.08;;
46723;SDS011;32463;48.298;11.620;2023-05-10T02:12:43;1.17;;;0.93;;
46723;SDS011;32463;48.298;11.620;2023-05-10T02:15:12;1.83;;;1.00;;
46723;SDS011;32463;48.298;11.620;2023-05-10T02:17:43;1.38;;;0.98;;
46723;SDS011;32463;48.298;11.620;2023-05-10T02:20:12;4.72;;;1.00;;
46723;SDS011;32463;48.298;11.620;2023-05-10T02:22:42;1.20;;;0.98;;
46723;SDS011;32463;48.298;11.620;2023-05-10T02:25:11;3.08;;;1.10;;
46723;SDS011;32463;48.298;11.620;2023-05-10T02:27:40;2.60;;;1.00;;
46723;SDS011;32463;48.298;11.620;2023-05-10T02:30:09;0.82;;;0.80;;
46723;SDS011;32463;48.298;11.620;2023-05-10T02:32:36;1.73;;;1.00;;
46723;SDS011;32463;48.298;11.620;2023-05-10T02:35:04;1.25;;;0.82;;
46723;SDS011;32463;48.298;11.620;2023-05-10T02:37:31;1.70;;;1.20;;
46723;SDS011;32463;48.298;11.620;2023-05-10T02:39:59;1.55;;;1.00;;
46723;SDS011;32463;48.298;11.620;2023-05-10T02:42:28;3.63;;;0.80;;
46723;SDS011;32463;48.298;11.620;2023-05-10T02:44:59;1.25;;;0.95;;
46723;SDS011;32463;48.298;11.620;2023-05-10T02:47:28;1.17;;;0.90;;
46723;SDS011;32463;48.298;11.620;2023-05-10T02:49:55;1.33;;;1.00;;
46723;SDS011;32463;48.298;11.620;2023-05-10T02:52:23;2.00;;;1.10;;
46723;SDS011;32463;48.298;11.620;2023-05-10T02:54:58;1.17;;;0.90;;
46723;SDS011;32463;48.298;11.620;2023-05-10T02:57:30;1.50;;;0.98;;
46723;SDS011;32463;48.298;11.620;2023-05-10T03:00:00;1.33;;;1.00;;
46723;SDS011;32463;48.298;11.620;2023-05-10T03:02:28;1.55;;;1.10;;
46723;SDS011;32463;48.298;11.620;2023-05-10T03:04:56;0.90;;;0.90;;
46723;SDS011;32463;48.298;11.620;2023-05-10T03:07:22;1.40;;;0.90;;
46723;SDS011;32463;48.298;11.620;2023-05-10T03:09:55;1.27;;;0.95;;
46723;SDS011;32463;48.298;11.620;2023-05-10T03:15:52;2.17;;;1.00;;
46723;SDS011;32463;48.298;11.620;2023-05-10T03:18:28;1.67;;;1.15;;
46723;SDS011;32463;48.298;11.620;2023-05-10T03:21:01;2.25;;;1.10;;
46723;SDS011;32463;48.298;11.620;2023-05-10T03:23:34;1.90;;;1.13;;
46723;SDS011;32463;48.298;11.620;2023-05-10T03:26:05;1.33;;;0.90;;
46723;SDS011;32463;48.298;11.620;2023-05-10T03:28:33;1.25;;;0.90;;
46723;SDS011;32463;48.298;11.620;2023-05-10T03:31:01;3.10;;;1.10;;
46723;SDS011;32463;48.298;11.620;2023-05-10T03:33:30;1.60;;;1.10;;
46723;SDS011;32463;48.298;11.620;2023-05-10T03:35:57;1.98;;;1.20;;
46723;SDS011;32463;48.298;11.620;2023-05-10T03:38:23;1.45;;;1.00;;
46723;SDS011;32463;48.298;11.620;2023-05-10T03:40:50;1.48;;;1.10;;
46723;SDS011;32463;48.298;11.620;2023-05-10T03:43:16;1.50;;;1.23;;
46723;SDS011;32463;48.298;11.620;2023-05-10T03:45:42;1.40;;;1.00;;
46723;SDS011;32463;48.298;11.620;2023-05-10T03:48:09;2.20;;;1.23;;
46723;SDS011;32463;48.298;11.620;2023-05-10T03:50:35;2.05;;;1.08;;
46723;SDS011;32463;48.298;11.620;2023-05-10T03:53:01;1.05;;;0.90;;
46723;SDS011;32463;48.298;11.620;2023-05-10T03:55:28;2.00;;;1.10;;
46723;SDS011;32463;48.298;11.620;2023-05-10T03:57:59;2.13;;;1.20;;
46723;SDS011;32463;48.298;11.620;2023-05-10T04:00:25;1.65;;;1.10;;
46723;SDS011;32463;48.298;11.620;2023-05-10T04:02:52;1.15;;;1.00;;
46723;SDS011;32463;48.298;11.620;2023-05-10T04:05:18;1.95;;;1.10;;
46723;SDS011;32463;48.298;11.620;2023-05-10T04:07:45;3.00;;;1.33;;
46723;SDS011;32463;48.298;11.620;2023-05-10T04:10:12;2.85;;;1.27;;
46723;SDS011;32463;48.298;11.620;2023-05-10T04:12:38;1.67;;;1.13;;
46723;SDS011;32463;48.298;11.620;2023-05-10T04:15:05;1.23;;;1.10;;
46723;SDS011;32463;48.298;11.620;2023-05-10T04:17:31;1.48;;;1.20;;
46723;SDS011;32463;48.298;11.620;2023-05-10T04:19:58;2.25;;;1.38;;
46723;SDS011;32463;48.298;11.620;2023-05-10T04:22:24;1.30;;;1.15;;
46723;SDS011;32463;48.298;11.620;2023-05-10T04:24:52;2.55;;;1.10;;
46723;SDS011;32463;48.298;11.620;2023-05-10T04:27:19;3.05;;;1.40;;
46723;SDS011;32463;48.298;11.620;2023-05-10T04:29:45;1.85;;;1.10;;
46723;SDS011;32463;48.298;11.620;2023-05-10T04:32:11;1.35;;;1.08;;
46723;SDS011;32463;48.298;11.620;2023-05-10T04:34:38;2.30;;;1.02;;
46723;SDS011;32463;48.298;11.620;2023-05-10T04:37:04;1.55;;;1.00;;
46723;SDS011;32463;48.298;11.620;2023-05-10T04:39:31;1.30;;;1.17;;
46723;SDS011;32463;48.298;11.620;2023-05-10T04:41:58;2.50;;;1.10;;
46723;SDS011;32463;48.298;11.620;2023-05-10T04:44:24;2.25;;;1.27;;
46723;SDS011;32463;48.298;11.620;2023-05-10T04:46:51;1.48;;;1.20;;
46723;SDS011;32463;48.298;11.620;2023-05-10T04:49:17;1.90;;;1.10;;
46723;SDS011;32463;48.298;11.620;2023-05-10T04:51:44;2.75;;;1.42;;
46723;SDS011;32463;48.298;11.620;2023-05-10T04:54:10;3.40;;;1.50;;
46723;SDS011;32463;48.298;11.620;2023-05-10T04:56:37;0.80;;;0.80;;
46723;SDS011;32463;48.298;11.620;2023-05-10T04:59:03;1.30;;;1.00;;
46723;SDS011;32463;48.298;11.620;2023-05-10T05:01:29;0.80;;;0.80;;
46723;SDS011;32463;48.298;11.620;2023-05-10T05:03:56;2.63;;;1.15;;
46723;SDS011;32463;48.298;11.620;2023-05-10T05:06:22;3.58;;;1.00;;
46723;SDS011;32463;48.298;11.620;2023-05-10T05:08:51;0.95;;;0.73;;
46723;SDS011;32463;48.298;11.620;2023-05-10T05:11:17;1.25;;;0.70;;
46723;SDS011;32463;48.298;11.620;2023-05-10T05:13:44;1.40;;;0.90;;
46723;SDS011;32463;48.298;11.620;2023-05-10T05:16:10;1.95;;;0.50;;
46723;SDS011;32463;48.298;11.620;2023-05-10T05:18:37;1.65;;;0.60;;
46723;SDS011;32463;48.298;11.620;2023-05-10T05:21:03;2.83;;;0.60;;
46723;SDS011;32463;48.298;11.620;2023-05-10T05:23:39;0.80;;;0.50;;
46723;SDS011;32463;48.298;11.620;2023-05-10T05:26:06;0.77;;;0.57;;
46723;SDS011;32463;48.298;11.620;2023-05-10T05:28:32;0.82;;;0.52;;
46723;SDS011;32463;48.298;11.620;2023-05-10T05:31:02;1.73;;;0.70;;
46723;SDS011;32463;48.298;11.620;2023-05-10T05:33:33;1.23;;;0.60;;
46723;SDS011;32463;48.298;11.620;2023-05-10T05:36:00;0.85;;;0.70;;
46723;SDS011;32463;48.298;11.620;2023-05-10T05:38:28;1.33;;;0.90;;
46723;SDS011;32463;48.298;11.620;2023-05-10T05:40:54;3.55;;;2.25;;
46723;SDS011;32463;48.298;11.620;2023-05-10T05:43:21;2.65;;;0.68;;
46723;SDS011;32463;48.298;11.620;2023-05-10T05:45:47;1.17;;;0.55;;
46723;SDS011;32463;48.298;11.620;2023-05-10T05:48:14;1.15;;;0.77;;
46723;SDS011;32463;48.298;11.620;2023-05-10T05:50:40;0.80;;;0.65;;
46723;SDS011;32463;48.298;11.620;2023-05-10T05:53:06;2.88;;;0.95;;
46723;SDS011;32463;48.298;11.620;2023-05-10T05:55:33;1.17;;;0.88;;
46723;SDS011;32463;48.298;11.620;2023-05-10T05:58:00;1.70;;;0.90;;
46723;SDS011;32463;48.298;11.620;2023-05-10T06:00:27;1.40;;;0.90;;
46723;SDS011;32463;48.298;11.620;2023-05-10T06:02:53;2.70;;;0.90;;
46723;SDS011;32463;48.298;11.620;2023-05-10T06:05:20;1.27;;;1.00;;
46723;SDS011;32463;48.298;11.620;2023-05-10T06:07:46;1.33;;;0.80;;
46723;SDS011;32463;48.298;11.620;2023-05-10T06:10:13;5.07;;;1.10;;
46723;SDS011;32463;48.298;11.620;2023-05-10T06:12:39;5.28;;;1.10;;
46723;SDS011;32463;48.298;11.620;2023-05-10T06:15:06;1.77;;;1.27;;
46723;SDS011;32463;48.298;11.620;2023-05-10T06:17:33;1.33;;;1.10;;
46723;SDS011;32463;48.298;11.620;2023-05-10T06:19:59;2.53;;;1.20;;
46723;SDS011;32463;48.298;11.620;2023-05-10T06:22:25;1.40;;;1.00;;
46723;SDS011;32463;48.298;11.620;2023-05-10T06:24:52;2.20;;;1.15;;
46723;SDS011;32463;48.298;11.620;2023-05-10T06:27:18;2.25;;;0.95;;
46723;SDS011;32463;48.298;11.620;2023-05-10T06:29:45;3.03;;;1.08;;
46723;SDS011;32463;48.298;11.620;2023-05-10T06:32:11;5.60;;;1.20;;
46723;SDS011;32463;48.298;11.620;2023-05-10T06:34:40;1.50;;;1.10;;
46723;SDS011;32463;48.298;11.620;2023-05-10T06:37:08;1.20;;;1.05;;
46723;SDS011;32463;48.298;11.620;2023-05-10T06:39:34;2.78;;;1.15;;
46723;SDS011;32463;48.298;11.620;2023-05-10T06:42:01;2.50;;;1.30;;
46723;SDS011;32463;48.298;11.620;2023-05-10T06:44:29;1.75;;;1.30;;
46723;SDS011;32463;48.298;11.620;2023-05-10T06:46:55;2.90;;;1.13;;
46723;SDS011;32463;48.298;11.620;2023-05-10T06:49:22;2.00;;;1.15;;
46723;SDS011;32463;48.298;11.620;2023-05-10T06:51:48;2.22;;;1.13;;
46723;SDS011;32463;48.298;11.620;2023-05-10T06:54:15;2.38;;;1.35;;
46723;SDS011;32463;48.298;11.620;2023-05-10T06:56:41;3.30;;;1.20;;
46723;SDS011;32463;48.298;11.620;2023-05-10T06:59:08;1.52;;;0.98;;
46723;SDS011;32463;48.298;11.620;2023-05-10T07:01:34;2.83;;;1.30;;
46723;SDS011;32463;48.298;11.620;2023-05-10T07:04:00;4.45;;;1.35;;
46723;SDS011;32463;48.298;11.620;2023-05-10T07:06:27;1.98;;;1.42;;
46723;SDS011;32463;48.298;11.620;2023-05-10T07:08:53;1.80;;;1.30;;
46723;SDS011;32463;48.298;11.620;2023-05-10T07:11:20;2.58;;;1.33;;
46723;SDS011;32463;48.298;11.620;2023-05-10T07:13:46;2.05;;;1.30;;
46723;SDS011;32463;48.298;11.620;2023-05-10T07:16:14;1.65;;;1.30;;
46723;SDS011;32463;48.298;11.620;2023-05-10T07:18:40;1.88;;;1.20;;
46723;SDS011;32463;48.298;11.620;2023-05-10T07:21:07;1.52;;;1.20;;
46723;SDS011;32463;48.298;11.620;2023-05-10T07:23:33;1.92;;;1.38;;
46723;SDS011;32463;48.298;11.620;2023-05-10T07:26:00;1.23;;;1.00;;
46723;SDS011;32463;48.298;11.620;2023-05-10T07:28:27;2.08;;;1.13;;
46723;SDS011;32463;48.298;11.620;2023-05-10T07:30:53;2.63;;;1.05;;
46723;SDS011;32463;48.298;11.620;2023-05-10T07:33:20;1.30;;;1.17;;
46723;SDS011;32463;48.298;11.620;2023-05-10T07:35:46;3.60;;;1.33;;
46723;SDS011;32463;48.298;11.620;2023-05-10T07:38:13;2.63;;;1.20;;
46723;SDS011;32463;48.298;11.620;2023-05-10T07:40:39;1.60;;;1.10;;
46723;SDS011;32463;48.298;11.620;2023-05-10T07:43:10;3.70;;;1.33;;
46723;SDS011;32463;48.298;11.620;2023-05-10T07:45:36;7.63;;;1.80;;
46723;SDS011;32463;48.298;11.620;2023-05-10T07:48:03;3.08;;;1.25;;
46723;SDS011;32463;48.298;11.620;2023-05-10T07:50:29;2.35;;;1.20;;
46723;SDS011;32463;48.298;11.620;2023-05-10T07:52:56;3.40;;;1.20;;
46723;SDS011;32463;48.298;11.620;2023-05-10T07:55:22;4.75;;;1.45;;
46723;SDS011;32463;48.298;11.620;2023-05-10T07:57:49;1.42;;;1.20;;
46723;SDS011;32463;48.298;11.620;2023-05-10T08:00:19;1.88;;;1.20;;
46723;SDS011;32463;48.298;11.620;2023-05-10T08:02:46;3.22;;;1.27;;
46723;SDS011;32463;48.298;11.620;2023-05-10T08:05:13;1.55;;;1.02;;
46723;SDS011;32463;48.298;11.620;2023-05-10T08:07:40;2.70;;;1.23;;
46723;SDS011;32463;48.298;11.620;2023-05-10T08:10:07;2.95;;;1.33;;
46723;SDS011;32463;48.298;11.620;2023-05-10T08:12:34;1.95;;;1.10;;
46723;SDS011;32463;48.298;11.620;2023-05-10T08:15:01;2.35;;;1.70;;
46723;SDS011;32463;48.298;11.620;2023-05-10T08:17:28;1.40;;;1.20;;
46723;SDS011;32463;48.298;11.620;2023-05-10T08:19:54;2.40;;;1.58;;
46723;SDS011;32463;48.298;11.620;2023-05-10T08:22:21;6.20;;;2.30;;
46723;SDS011;32463;48.298;11.620;2023-05-10T08:24:47;2.78;;;1.50;;
46723;SDS011;32463;48.298;11.620;2023-05-10T08:27:13;2.42;;;1.33;;
46723;SDS011;32463;48.298;11.620;2023-05-10T08:29:40;3.22;;;1.10;;
46723;SDS011;32463;48.298;11.620;2023-05-10T08:32:06;2.15;;;1.20;;
46723;SDS011;32463;48.298;11.620;2023-05-10T08:34:33;1.50;;;1.05;;
46723;SDS011;32463;48.298;11.620;2023-05-10T08:36:59;1.40;;;1.10;;
46723;SDS011;32463;48.298;11.620;2023-05-10T08:39:26;5.28;;;0.90;;
46723;SDS011;32463;48.298;11.620;2023-05-10T08:41:52;1.52;;;1.10;;
46723;SDS011;32463;48.298;11.620;2023-05-10T08:44:20;1.83;;;1.10;;
46723;SDS011;32463;48.298;11.620;2023-05-10T08:46:46;1.63;;;1.00;;
46723;SDS011;32463;48.298;11.620;2023-05-10T08:49:19;4.43;;;1.30;;
46723;SDS011;32463;48.298;11.620;2023-05-10T08:51:47;3.00;;;1.15;;
46723;SDS011;32463;48.298;11.620;2023-05-10T08:54:17;2.33;;;1.10;;
46723;SDS011;32463;48.298;11.620;2023-05-10T08:56:44;3.25;;;1.30;;
46723;SDS011;32463;48.298;11.620;2023-05-10T08:59:11;3.35;;;1.10;;
46723;SDS011;32463;48.298;11.620;2023-05-10T09:01:39;2.40;;;1.10;;
46723;SDS011;32463;48.298;11.620;2023-05-10T09:04:06;1.17;;;1.00;;
46723;SDS011;32463;48.298;11.620;2023-05-10T09:06:32;1.80;;;1.00;;
46723;SDS011;32463;48.298;11.620;2023-05-10T09:08:59;1.10;;;1.00;;
46723;SDS011;32463;48.298;11.620;2023-05-10T09:11:28;1.05;;;0.88;;
46723;SDS011;32463;48.298;11.620;2023-05-10T09:13:55;1.33;;;0.85;;
46723;SDS011;32463;48.298;11.620;2023-05-10T09:16:22;4.80;;;1.17;;
46723;SDS011;32463;48.298;11.620;2023-05-10T09:18:49;1.75;;;1.13;;
46723;SDS011;32463;48.298;11.620;2023-05-10T09:21:16;2.65;;;0.93;;
46723;SDS011;32463;48.298;11.620;2023-05-10T09:23:46;2.70;;;1.13;;
46723;SDS011;32463;48.298;11.620;2023-05-10T09:26:14;1.80;;;1.05;;
46723;SDS011;32463;48.298;11.620;2023-05-10T09:28:56;2.38;;;1.35;;
46723;SDS011;32463;48.298;11.620;2023-05-10T09:34:11;4.22;;;1.20;;
46723;SDS011;32463;48.298;11.620;2023-05-10T09:36:49;1.05;;;0.80;;
46723;SDS011;32463;48.298;11.620;2023-05-10T09:39:16;2.67;;;1.13;;
46723;SDS011;32463;48.298;11.620;2023-05-10T09:41:46;1.52;;;1.10;;
46723;SDS011;32463;48.298;11.620;2023-05-10T09:44:16;1.50;;;0.90;;
46723;SDS011;32463;48.298;11.620;2023-05-10T09:46:48;2.63;;;0.90;;
46723;SDS011;32463;48.298;11.620;2023-05-10T09:49:15;1.88;;;1.08;;
46723;SDS011;32463;48.298;11.620;2023-05-10T09:51:42;2.75;;;0.98;;
46723;SDS011;32463;48.298;11.620;2023-05-10T09:54:09;1.15;;;0.90;;
46723;SDS011;32463;48.298;11.620;2023-05-10T09:56:36;2.05;;;0.93;;
46723;SDS011;32463;48.298;11.620;2023-05-10T09:59:05;1.95;;;1.10;;
46723;SDS011;32463;48.298;11.620;2023-05-10T10:01:34;2.67;;;1.08;;
46723;SDS011;32463;48.298;11.620;2023-05-10T10:04:04;2.45;;;1.20;;
46723;SDS011;32463;48.298;11.620;2023-05-10T10:06:39;5.22;;;1.13;;
46723;SDS011;32463;48.298;11.620;2023-05-10T10:09:07;3.45;;;1.20;;
46723;SDS011;32463;48.298;11.620;2023-05-10T10:11:34;2.33;;;1.27;;
46723;SDS011;32463;48.298;11.620;2023-05-10T10:14:02;2.83;;;1.60;;
46723;SDS011;32463;48.298;11.620;2023-05-10T10:16:29;2.78;;;1.45;;
46723;SDS011;32463;48.298;11.620;2023-05-10T10:18:56;1.70;;;1.20;;
46723;SDS011;32463;48.298;11.620;2023-05-10T10:21:23;2.95;;;1.50;;
46723;SDS011;32463;48.298;11.620;2023-05-10T10:23:50;2.80;;;1.48;;
46723;SDS011;32463;48.298;11.620;2023-05-10T10:26:18;2.58;;;1.55;;
46723;SDS011;32463;48.298;11.620;2023-05-10T10:34:43;3.63;;;1.55;;
46723;SDS011;32463;48.298;11.620;2023-05-10T10:37:10;2.42;;;1.50;;
46723;SDS011;32463;48.298;11.620;2023-05-10T10:39:36;1.60;;;1.33;;
46723;SDS011;32463;48.298;11.620;2023-05-10T10:42:04;3.35;;;1.77;;
46723;SDS011;32463;48.298;11.620;2023-05-10T10:52:42;3.47;;;1.60;;
46723;SDS011;32463;48.298;11.620;2023-05-10T10:55:13;2.95;;;1.70;;
46723;SDS011;32463;48.298;11.620;2023-05-10T10:57:51;2.30;;;1.65;;
46723;SDS011;32463;48.298;11.620;2023-05-10T11:05:25;3.70;;;1.50;;
46723;SDS011;32463;48.298;11.620;2023-05-10T11:07:59;8.05;;;1.63;;
46723;SDS011;32463;48.298;11.620;2023-05-10T11:10:32;2.30;;;1.40;;
46723;SDS011;32463;48.298;11.620;2023-05-10T11:13:02;2.50;;;1.40;;
46723;SDS011;32463;48.298;11.620;2023-05-10T11:17:57;2.67;;;1.55;;
46723;SDS011;32463;48.298;11.620;2023-05-10T11:20:23;2.30;;;1.50;;
46723;SDS011;32463;48.298;11.620;2023-05-10T11:23:00;3.15;;;1.50;;
46723;SDS011;32463;48.298;11.620;2023-05-10T11:25:42;3.40;;;1.58;;
46723;SDS011;32463;48.298;11.620;2023-05-10T11:28:10;3.80;;;1.58;;
46723;SDS011;32463;48.298;11.620;2023-05-10T11:30:40;3.72;;;1.58;;
46723;SDS011;32463;48.298;11.620;2023-05-10T11:33:09;3.63;;;1.70;;
46723;SDS011;32463;48.298;11.620;2023-05-10T11:35:40;2.38;;;1.50;;
46723;SDS011;32463;48.298;11.620;2023-05-10T11:38:08;2.35;;;1.48;;
46723;SDS011;32463;48.298;11.620;2023-05-10T11:40:35;3.80;;;1.50;;
46723;SDS011;32463;48.298;11.620;2023-05-10T11:43:03;4.50;;;1.60;;
46723;SDS011;32463;48.298;11.620;2023-05-10T11:45:33;2.55;;;1.20;;
46723;SDS011;32463;48.298;11.620;2023-05-10T11:48:00;1.95;;;0.90;;
46723;SDS011;32463;48.298;11.620;2023-05-10T11:50:28;5.93;;;1.58;;
46723;SDS011;32463;48.298;11.620;2023-05-10T11:52:57;2.53;;;1.30;;
46723;SDS011;32463;48.298;11.620;2023-05-10T11:55:24;3.97;;;1.30;;
46723;SDS011;32463;48.298;11.620;2023-05-10T11:57:51;3.80;;;1.45;;
46723;SDS011;32463;48.298;11.620;2023-05-10T12:00:18;3.13;;;1.35;;
46723;SDS011;32463;48.298;11.620;2023-05-10T12:02:44;2.55;;;1.35;;
46723;SDS011;32463;48.298;11.620;2023-05-10T12:05:13;3.80;;;1.00;;
46723;SDS011;32463;48.298;11.620;2023-05-10T12:07:40;4.22;;;1.30;;
46723;SDS011;32463;48.298;11.620;2023-05-10T12:12:44;1.42;;;1.10;;
46723;SDS011;32463;48.298;11.620;2023-05-10T12:15:16;2.38;;;1.27;;
46723;SDS011;32463;48.298;11.620;2023-05-10T12:17:45;2.78;;;1.20;;
46723;SDS011;32463;48.298;11.620;2023-05-10T12:20:13;1.85;;;1.10;;
46723;SDS011;32463;48.298;11.620;2023-05-10T12:22:43;3.08;;;1.30;;
46723;SDS011;32463;48.298;11.620;2023-05-10T12:25:11;2.20;;;1.30;;
46723;SDS011;32463;48.298;11.620;2023-05-10T12:27:37;6.05;;;2.00;;
46723;SDS011;32463;48.298;11.620;2023-05-10T12:30:04;7.47;;;1.85;;
46723;SDS011;32463;48.298;11.620;2023-05-10T12:32:38;10.68;;;2.38;;
46723;SDS011;32463;48.298;11.620;2023-05-10T12:35:07;2.38;;;1.30;;
46723;SDS011;32463;48.298;11.620;2023-05-10T12:37:35;7.25;;;1.35;;
46723;SDS011;32463;48.298;11.620;2023-05-10T12:40:06;3.03;;;1.25;;
46723;SDS011;32463;48.298;11.620;2023-05-10T12:42:35;3.28;;;1.20;;
46723;SDS011;32463;48.298;11.620;2023-05-10T12:45:03;1.52;;;1.10;;
46723;SDS011;32463;48.298;11.620;2023-05-10T12:47:31;1.90;;;1.17;;
46723;SDS011;32463;48.298;11.620;2023-05-10T12:49:58;1.70;;;1.17;;
46723;SDS011;32463;48.298;11.620;2023-05-10T12:52:26;3.63;;;1.20;;
46723;SDS011;32463;48.298;11.620;2023-05-10T12:54:54;2.28;;;1.50;;
46723;SDS011;32463;48.298;11.620;2023-05-10T12:57:20;2.42;;;1.20;;
46723;SDS011;32463;48.298;11.620;2023-05-10T12:59:47;2.05;;;1.30;;
46723;SDS011;32463;48.298;11.620;2023-05-10T13:02:13;3.88;;;1.50;;
46723;SDS011;32463;48.298;11.620;2023-05-10T13:04:40;4.50;;;1.42;;
46723;SDS011;32463;48.298;11.620;2023-05-10T13:07:07;2.13;;;1.30;;
46723;SDS011;32463;48.298;11.620;2023-05-10T13:09:33;2.22;;;1.60;;
46723;SDS011;32463;48.298;11.620;2023-05-10T13:12:00;2.85;;;1.80;;
46723;SDS011;32463;48.298;11.620;2023-05-10T13:14:27;3.75;;;1.83;;
46723;SDS011;32463;48.298;11.620;2023-05-10T13:16:57;3.03;;;1.42;;
46723;SDS011;32463;48.298;11.620;2023-05-10T13:19:23;3.13;;;1.80;;
46723;SDS011;32463;48.298;11.620;2023-05-10T13:21:50;2.65;;;1.40;;
46723;SDS011;32463;48.298;11.620;2023-05-10T13:24:17;5.20;;;1.58;;
46723;SDS011;32463;48.298;11.620;2023-05-10T13:26:43;3.35;;;1.40;;
46723;SDS011;32463;48.298;11.620;2023-05-10T13:29:10;3.28;;;1.20;;
46723;SDS011;32463;48.298;11.620;2023-05-10T13:31:36;5.40;;;1.73;;
46723;SDS011;32463;48.298;11.620;2023-05-10T13:34:03;4.90;;;1.70;;
46723;SDS011;32463;48.298;11.620;2023-05-10T13:36:39;1.50;;;0.95;;
46723;SDS011;32463;48.298;11.620;2023-05-10T13:39:05;0.82;;;0.68;;
46723;SDS011;32463;48.298;11.620;2023-05-10T13:41:33;3.05;;;0.88;;
46723;SDS011;32463;48.298;11.620;2023-05-10T13:43:59;0.70;;;0.70;;
46723;SDS011;32463;48.298;11.620;2023-05-10T13:46:26;3.67;;;1.00;;
46723;SDS011;32463;48.298;11.620;2023-05-10T13:48:52;1.02;;;0.70;;
46723;SDS011;32463;48.298;11.620;2023-05-10T13:51:19;1.42;;;0.90;;
46723;SDS011;32463;48.298;11.620;2023-05-10T13:53:45;2.45;;;1.00;;
46723;SDS011;32463;48.298;11.620;2023-05-10T13:56:13;3.92;;;0.88;;
46723;SDS011;32463;48.298;11.620;2023-05-10T13:58:39;1.67;;;0.90;;
46723;SDS011;32463;48.298;11.620;2023-05-10T14:01:07;1.00;;;0.90;;
46723;SDS011;32463;48.298;11.620;2023-05-10T14:03:36;1.45;;;0.77;;
46723;SDS011;32463;48.298;11.620;2023-05-10T14:06:03;2.35;;;0.98;;
46723;SDS011;32463;48.298;11.620;2023-05-10T14:08:29;1.33;;;0.82;;
46723;SDS011;32463;48.298;11.620;2023-05-10T14:10:56;3.05;;;1.13;;
46723;SDS011;32463;48.298;11.620;2023-05-10T14:13:23;4.53;;;1.20;;
46723;SDS011;32463;48.298;11.620;2023-05-10T14:15:49;2.47;;;0.90;;
46723;SDS011;32463;48.298;11.620;2023-05-10T14:18:16;4.10;;;1.17;;
46723;SDS011;32463;48.298;11.620;2023-05-10T14:20:42;3.05;;;1.35;;
46723;SDS011;32463;48.298;11.620;2023-05-10T14:23:09;3.40;;;1.73;;
46723;SDS011;32463;48.298;11.620;2023-05-10T14:25:35;4.70;;;1.50;;
46723;SDS011;32463;48.298;11.620;2023-05-10T14:28:03;3.42;;;1.90;;
46723;SDS011;32463;48.298;11.620;2023-05-10T14:30:29;4.15;;;1.60;;
46723;SDS011;32463;48.298;11.620;2023-05-10T14:32:57;3.65;;;1.98;;
46723;SDS011;32463;48.298;11.620;2023-05-10T14:35:26;3.17;;;1.95;;
46723;SDS011;32463;48.298;11.620;2023-05-10T14:37:53;2.97;;;1.73;;
46723;SDS011;32463;48.298;11.620;2023-05-10T14:40:20;3.30;;;2.22;;
46723;SDS011;32463;48.298;11.620;2023-05-10T14:42:46;2.90;;;2.00;;
46723;SDS011;32463;48.298;11.620;2023-05-10T14:45:13;3.25;;;2.13;;
46723;SDS011;32463;48.298;11.620;2023-05-10T14:47:39;4.47;;;2.00;;
46723;SDS011;32463;48.298;11.620;2023-05-10T14:50:06;3.78;;;1.90;;
46723;SDS011;32463;48.298;11.620;2023-05-10T14:52:33;6.28;;;2.40;;
46723;SDS011;32463;48.298;11.620;2023-05-10T14:54:59;3.67;;;1.95;;
46723;SDS011;32463;48.298;11.620;2023-05-10T14:57:26;6.88;;;1.55;;
46723;SDS011;32463;48.298;11.620;2023-05-10T14:59:54;4.07;;;1.50;;
46723;SDS011;32463;48.298;11.620;2023-05-10T15:02:21;3.30;;;1.83;;
46723;SDS011;32463;48.298;11.620;2023-05-10T15:04:47;3.08;;;1.30;;
46723;SDS011;32463;48.298;11.620;2023-05-10T15:07:14;3.42;;;1.20;;
46723;SDS011;32463;48.298;11.620;2023-05-10T15:09:42;2.45;;;1.20;;
46723;SDS011;32463;48.298;11.620;2023-05-10T15:12:08;2.22;;;1.40;;
46723;SDS011;32463;48.298;11.620;2023-05-10T15:14:35;3.10;;;1.25;;
46723;SDS011;32463;48.298;11.620;2023-05-10T15:17:02;2.95;;;1.50;;
46723;SDS011;32463;48.298;11.620;2023-05-10T15:19:29;3.97;;;1.33;;